sensor_id;sensor_type;location;lat;lon;timestamp;P1;durP1;ratioP1;P2;durP2;ratioP2
57281;SDS011;43129;52.628;10.098;2023-05-10T00:01:03;7.85;;;3.83;;
57281;SDS011;43129;52.628;10.098;2023-05-10T00:03:28;6.78;;;3.90;;
57281;SDS011;43129;52.628;10.098;2023-05-10T00:05:54;5.20;;;4.00;;
57281;SDS011;43129;52.628;10.098;2023-05-10T00:08:22;6.07;;;4.15;;
57281;SDS011;43129;52.628;10.098;2023-05-10T00:10:48;5.78;;;4.25;;
57281;SDS011;43129;52.628;10.098;2023-05-10T00:13:16;4.97;;;3.70;;
57281;SDS011;43129;52.628;10.098;2023-05-10T00:15:44;5.95;;;4.38;;
57281;SDS011;43129;52.628;10.098;2023-05-10T00:18:15;9.05;;;4.53;;
57281;SDS011;43129;52.628;10.098;2023-05-10T00:20:45;4.80;;;4.10;;
57281;SDS011;43129;52.628;10.098;2023-05-10T00:23:13;5.07;;;3.70;;
57281;SDS011;43129;52.628;10.098;2023-05-10T00:25:39;6.70;;;4.18;;
57281;SDS011;43129;52.628;10.098;2023-05-10T00:28:04;8.52;;;3.95;;
57281;SDS011;43129;52.628;10.098;2023-05-10T00:30:30;6.85;;;3.83;;
57281;SDS011;43129;52.628;10.098;2023-05-10T00:32:58;8.38;;;4.20;;
57281;SDS011;43129;52.628;10.098;2023-05-10T00:35:23;6.78;;;4.20;;
57281;SDS011;43129;52.628;10.098;2023-05-10T00:37:49;6.65;;;4.70;;
57281;SDS011;43129;52.628;10.098;2023-05-10T00:40:15;7.55;;;4.90;;
57281;SDS011;43129;52.628;10.098;2023-05-10T00:42:43;6.65;;;4.00;;
57281;SDS011;43129;52.628;10.098;2023-05-10T00:45:09;5.40;;;4.13;;
57281;SDS011;43129;52.628;10.098;2023-05-10T00:47:34;7.75;;;4.05;;
57281;SDS011;43129;52.628;10.098;2023-05-10T00:50:00;5.85;;;3.88;;
57281;SDS011;43129;52.628;10.098;2023-05-10T00:52:32;6.22;;;4.63;;
57281;SDS011;43129;52.628;10.098;2023-05-10T00:55:00;5.95;;;4.25;;
57281;SDS011;43129;52.628;10.098;2023-05-10T00:57:28;6.05;;;4.75;;
57281;SDS011;43129;52.628;10.098;2023-05-10T00:59:56;7.25;;;4.32;;
57281;SDS011;43129;52.628;10.098;2023-05-10T01:02:27;8.20;;;4.50;;
57281;SDS011;43129;52.628;10.098;2023-05-10T01:04:52;6.38;;;4.10;;
57281;SDS011;43129;52.628;10.098;2023-05-10T01:07:19;5.53;;;4.28;;
57281;SDS011;43129;52.628;10.098;2023-05-10T01:09:44;8.05;;;4.20;;
57281;SDS011;43129;52.628;10.098;2023-05-10T01:12:11;5.00;;;4.07;;
57281;SDS011;43129;52.628;10.098;2023-05-10T01:14:39;7.93;;;4.53;;
57281;SDS011;43129;52.628;10.098;2023-05-10T01:17:07;6.32;;;4.40;;
57281;SDS011;43129;52.628;10.098;2023-05-10T01:19:37;6.05;;;4.60;;
57281;SDS011;43129;52.628;10.098;2023-05-10T01:33:31;6.47;;;4.38;;
57281;SDS011;43129;52.628;10.098;2023-05-10T01:36:30;5.00;;;4.13;;
57281;SDS011;43129;52.628;10.098;2023-05-10T01:42:04;6.45;;;4.70;;
57281;SDS011;43129;52.628;10.098;2023-05-10T01:47:31;5.40;;;4.30;;
57281;SDS011;43129;52.628;10.098;2023-05-10T01:50:04;6.45;;;4.00;;
57281;SDS011;43129;52.628;10.098;2023-05-10T01:52:38;5.20;;;4.45;;
57281;SDS011;43129;52.628;10.098;2023-05-10T01:55:09;7.20;;;4.47;;
57281;SDS011;43129;52.628;10.098;2023-05-10T01:57:42;6.30;;;4.72;;
57281;SDS011;43129;52.628;10.098;2023-05-10T02:00:18;5.00;;;4.00;;
57281;SDS011;43129;52.628;10.098;2023-05-10T02:02:45;6.53;;;4.13;;
57281;SDS011;43129;52.628;10.098;2023-05-10T02:05:16;6.65;;;4.45;;
57281;SDS011;43129;52.628;10.098;2023-05-10T02:07:45;7.05;;;4.25;;
57281;SDS011;43129;52.628;10.098;2023-05-10T02:10:14;4.75;;;4.30;;
57281;SDS011;43129;52.628;10.098;2023-05-10T02:12:45;6.22;;;4.32;;
57281;SDS011;43129;52.628;10.098;2023-05-10T02:15:19;7.38;;;4.40;;
57281;SDS011;43129;52.628;10.098;2023-05-10T02:17:47;5.80;;;4.90;;
57281;SDS011;43129;52.628;10.098;2023-05-10T02:20:22;8.10;;;4.45;;
57281;SDS011;43129;52.628;10.098;2023-05-10T02:22:54;6.97;;;4.72;;
57281;SDS011;43129;52.628;10.098;2023-05-10T02:25:21;7.10;;;4.40;;
57281;SDS011;43129;52.628;10.098;2023-05-10T02:27:51;6.82;;;3.95;;
57281;SDS011;43129;52.628;10.098;2023-05-10T02:30:22;6.10;;;4.65;;
57281;SDS011;43129;52.628;10.098;2023-05-10T02:32:49;7.25;;;4.65;;
57281;SDS011;43129;52.628;10.098;2023-05-10T02:35:16;6.03;;;4.13;;
57281;SDS011;43129;52.628;10.098;2023-05-10T02:37:45;7.47;;;4.43;;
57281;SDS011;43129;52.628;10.098;2023-05-10T02:40:15;6.07;;;4.22;;
57281;SDS011;43129;52.628;10.098;2023-05-10T02:42:44;5.22;;;4.22;;
57281;SDS011;43129;52.628;10.098;2023-05-10T02:45:17;5.85;;;4.60;;
57281;SDS011;43129;52.628;10.098;2023-05-10T02:47:45;6.15;;;4.00;;
57281;SDS011;43129;52.628;10.098;2023-05-10T02:50:13;7.32;;;4.60;;
57281;SDS011;43129;52.628;10.098;2023-05-10T02:52:46;5.63;;;4.50;;
57281;SDS011;43129;52.628;10.098;2023-05-10T02:55:16;6.50;;;4.43;;
57281;SDS011;43129;52.628;10.098;2023-05-10T02:57:51;6.90;;;4.43;;
57281;SDS011;43129;52.628;10.098;2023-05-10T03:00:20;8.63;;;4.43;;
57281;SDS011;43129;52.628;10.098;2023-05-10T03:02:47;6.32;;;4.75;;
57281;SDS011;43129;52.628;10.098;2023-05-10T03:05:13;6.72;;;4.78;;
57281;SDS011;43129;52.628;10.098;2023-05-10T03:07:39;6.18;;;4.30;;
57281;SDS011;43129;52.628;10.098;2023-05-10T03:10:07;8.93;;;4.65;;
57281;SDS011;43129;52.628;10.098;2023-05-10T03:15:28;7.03;;;4.70;;
57281;SDS011;43129;52.628;10.098;2023-05-10T03:18:12;6.35;;;4.53;;
57281;SDS011;43129;52.628;10.098;2023-05-10T03:20:43;8.77;;;4.88;;
57281;SDS011;43129;52.628;10.098;2023-05-10T03:25:46;5.53;;;4.40;;
57281;SDS011;43129;52.628;10.098;2023-05-10T03:28:16;6.57;;;4.95;;
57281;SDS011;43129;52.628;10.098;2023-05-10T03:30:46;7.22;;;4.28;;
57281;SDS011;43129;52.628;10.098;2023-05-10T03:33:16;7.35;;;4.93;;
57281;SDS011;43129;52.628;10.098;2023-05-10T03:35:47;5.93;;;4.50;;
57281;SDS011;43129;52.628;10.098;2023-05-10T03:38:15;8.88;;;5.00;;
57281;SDS011;43129;52.628;10.098;2023-05-10T03:40:43;8.07;;;4.45;;
57281;SDS011;43129;52.628;10.098;2023-05-10T03:43:11;5.65;;;4.70;;
57281;SDS011;43129;52.628;10.098;2023-05-10T03:45:39;7.97;;;4.50;;
57281;SDS011;43129;52.628;10.098;2023-05-10T03:48:04;7.57;;;4.85;;
57281;SDS011;43129;52.628;10.098;2023-05-10T03:50:33;6.63;;;4.55;;
57281;SDS011;43129;52.628;10.098;2023-05-10T03:52:58;6.38;;;4.47;;
57281;SDS011;43129;52.628;10.098;2023-05-10T03:55:24;7.03;;;4.35;;
57281;SDS011;43129;52.628;10.098;2023-05-10T03:57:50;10.30;;;4.82;;
57281;SDS011;43129;52.628;10.098;2023-05-10T04:00:24;6.95;;;4.88;;
57281;SDS011;43129;52.628;10.098;2023-05-10T04:02:50;6.75;;;4.70;;
57281;SDS011;43129;52.628;10.098;2023-05-10T04:05:15;6.00;;;4.70;;
57281;SDS011;43129;52.628;10.098;2023-05-10T04:07:41;6.88;;;4.53;;
57281;SDS011;43129;52.628;10.098;2023-05-10T04:10:10;5.55;;;4.68;;
57281;SDS011;43129;52.628;10.098;2023-05-10T04:12:36;5.47;;;4.38;;
57281;SDS011;43129;52.628;10.098;2023-05-10T04:15:05;11.73;;;4.90;;
57281;SDS011;43129;52.628;10.098;2023-05-10T04:17:31;4.90;;;4.20;;
57281;SDS011;43129;52.628;10.098;2023-05-10T04:19:59;5.05;;;3.95;;
57281;SDS011;43129;52.628;10.098;2023-05-10T04:22:25;6.20;;;4.18;;
57281;SDS011;43129;52.628;10.098;2023-05-10T04:24:54;6.72;;;4.85;;
57281;SDS011;43129;52.628;10.098;2023-05-10T04:27:20;7.60;;;4.90;;
57281;SDS011;43129;52.628;10.098;2023-05-10T04:29:46;9.65;;;4.68;;
57281;SDS011;43129;52.628;10.098;2023-05-10T04:32:11;5.53;;;4.20;;
57281;SDS011;43129;52.628;10.098;2023-05-10T04:34:37;7.72;;;4.63;;
57281;SDS011;43129;52.628;10.098;2023-05-10T04:37:05;7.35;;;4.65;;
57281;SDS011;43129;52.628;10.098;2023-05-10T04:39:31;5.85;;;4.70;;
57281;SDS011;43129;52.628;10.098;2023-05-10T04:41:57;7.45;;;5.10;;
57281;SDS011;43129;52.628;10.098;2023-05-10T04:44:25;6.88;;;4.80;;
57281;SDS011;43129;52.628;10.098;2023-05-10T04:46:53;10.02;;;5.15;;
57281;SDS011;43129;52.628;10.098;2023-05-10T04:49:23;7.53;;;5.10;;
57281;SDS011;43129;52.628;10.098;2023-05-10T04:51:48;9.27;;;5.07;;
57281;SDS011;43129;52.628;10.098;2023-05-10T04:54:17;5.50;;;4.53;;
57281;SDS011;43129;52.628;10.098;2023-05-10T04:56:42;6.32;;;4.75;;
57281;SDS011;43129;52.628;10.098;2023-05-10T04:59:10;10.70;;;4.80;;
57281;SDS011;43129;52.628;10.098;2023-05-10T05:01:38;9.02;;;5.28;;
57281;SDS011;43129;52.628;10.098;2023-05-10T05:04:04;6.22;;;5.22;;
57281;SDS011;43129;52.628;10.098;2023-05-10T05:06:30;9.63;;;5.70;;
57281;SDS011;43129;52.628;10.098;2023-05-10T05:08:56;8.63;;;4.55;;
57281;SDS011;43129;52.628;10.098;2023-05-10T05:11:24;7.00;;;4.90;;
57281;SDS011;43129;52.628;10.098;2023-05-10T05:13:52;7.70;;;4.85;;
57281;SDS011;43129;52.628;10.098;2023-05-10T05:16:23;8.03;;;4.77;;
57281;SDS011;43129;52.628;10.098;2023-05-10T05:18:51;7.78;;;5.40;;
57281;SDS011;43129;52.628;10.098;2023-05-10T05:21:20;6.35;;;5.45;;
57281;SDS011;43129;52.628;10.098;2023-05-10T05:23:50;7.88;;;5.32;;
57281;SDS011;43129;52.628;10.098;2023-05-10T05:26:17;6.47;;;5.10;;
57281;SDS011;43129;52.628;10.098;2023-05-10T05:28:46;8.32;;;4.90;;
57281;SDS011;43129;52.628;10.098;2023-05-10T05:31:15;7.35;;;4.70;;
57281;SDS011;43129;52.628;10.098;2023-05-10T05:33:43;6.88;;;5.03;;
57281;SDS011;43129;52.628;10.098;2023-05-10T05:36:13;6.13;;;5.03;;
57281;SDS011;43129;52.628;10.098;2023-05-10T05:38:39;7.80;;;4.88;;
57281;SDS011;43129;52.628;10.098;2023-05-10T05:41:05;8.20;;;4.78;;
57281;SDS011;43129;52.628;10.098;2023-05-10T05:43:33;6.47;;;5.18;;
57281;SDS011;43129;52.628;10.098;2023-05-10T05:45:59;7.13;;;4.63;;
57281;SDS011;43129;52.628;10.098;2023-05-10T05:48:27;5.78;;;4.75;;
57281;SDS011;43129;52.628;10.098;2023-05-10T05:50:54;6.35;;;5.13;;
57281;SDS011;43129;52.628;10.098;2023-05-10T05:53:25;6.05;;;4.85;;
57281;SDS011;43129;52.628;10.098;2023-05-10T05:58:19;6.25;;;5.40;;
57281;SDS011;43129;52.628;10.098;2023-05-10T06:00:45;6.80;;;5.45;;
57281;SDS011;43129;52.628;10.098;2023-05-10T06:03:11;8.02;;;5.28;;
57281;SDS011;43129;52.628;10.098;2023-05-10T06:05:41;8.35;;;4.97;;
57281;SDS011;43129;52.628;10.098;2023-05-10T06:08:12;8.93;;;4.88;;
57281;SDS011;43129;52.628;10.098;2023-05-10T06:10:37;6.03;;;4.82;;
57281;SDS011;43129;52.628;10.098;2023-05-10T06:13:03;5.82;;;4.65;;
57281;SDS011;43129;52.628;10.098;2023-05-10T06:15:29;7.45;;;5.47;;
57281;SDS011;43129;52.628;10.098;2023-05-10T06:17:55;9.45;;;5.57;;
57281;SDS011;43129;52.628;10.098;2023-05-10T06:20:23;7.47;;;5.78;;
57281;SDS011;43129;52.628;10.098;2023-05-10T06:22:51;7.28;;;5.07;;
57281;SDS011;43129;52.628;10.098;2023-05-10T06:25:21;7.35;;;5.35;;
57281;SDS011;43129;52.628;10.098;2023-05-10T06:27:47;7.13;;;5.53;;
57281;SDS011;43129;52.628;10.098;2023-05-10T06:30:15;8.05;;;5.93;;
57281;SDS011;43129;52.628;10.098;2023-05-10T06:32:43;8.60;;;5.70;;
57281;SDS011;43129;52.628;10.098;2023-05-10T06:35:15;6.20;;;5.38;;
57281;SDS011;43129;52.628;10.098;2023-05-10T06:37:43;9.02;;;6.25;;
57281;SDS011;43129;52.628;10.098;2023-05-10T06:40:11;7.63;;;5.72;;
57281;SDS011;43129;52.628;10.098;2023-05-10T06:42:39;7.93;;;5.18;;
57281;SDS011;43129;52.628;10.098;2023-05-10T06:45:05;8.38;;;5.60;;
57281;SDS011;43129;52.628;10.098;2023-05-10T06:47:34;9.05;;;6.25;;
57281;SDS011;43129;52.628;10.098;2023-05-10T06:50:02;8.88;;;5.78;;
57281;SDS011;43129;52.628;10.098;2023-05-10T06:52:28;12.35;;;6.47;;
57281;SDS011;43129;52.628;10.098;2023-05-10T06:54:56;8.65;;;6.22;;
57281;SDS011;43129;52.628;10.098;2023-05-10T06:57:22;9.02;;;6.70;;
57281;SDS011;43129;52.628;10.098;2023-05-10T06:59:50;8.35;;;6.15;;
57281;SDS011;43129;52.628;10.098;2023-05-10T07:04:46;8.52;;;6.55;;
57281;SDS011;43129;52.628;10.098;2023-05-10T07:07:13;8.73;;;6.70;;
57281;SDS011;43129;52.628;10.098;2023-05-10T07:09:44;9.43;;;7.55;;
57281;SDS011;43129;52.628;10.098;2023-05-10T07:14:54;13.05;;;8.93;;
57281;SDS011;43129;52.628;10.098;2023-05-10T07:17:20;8.63;;;7.03;;
57281;SDS011;43129;52.628;10.098;2023-05-10T07:19:45;10.65;;;7.25;;
57281;SDS011;43129;52.628;10.098;2023-05-10T07:22:14;9.63;;;7.22;;
57281;SDS011;43129;52.628;10.098;2023-05-10T07:24:40;46.40;;;28.83;;
57281;SDS011;43129;52.628;10.098;2023-05-10T07:27:08;10.27;;;7.65;;
57281;SDS011;43129;52.628;10.098;2023-05-10T07:29:34;10.73;;;7.40;;
57281;SDS011;43129;52.628;10.098;2023-05-10T07:32:03;10.93;;;7.47;;
57281;SDS011;43129;52.628;10.098;2023-05-10T07:34:33;9.60;;;7.43;;
57281;SDS011;43129;52.628;10.098;2023-05-10T07:36:59;10.80;;;8.27;;
57281;SDS011;43129;52.628;10.098;2023-05-10T07:39:27;11.65;;;8.40;;
57281;SDS011;43129;52.628;10.098;2023-05-10T07:41:55;10.65;;;9.20;;
57281;SDS011;43129;52.628;10.098;2023-05-10T07:44:28;12.10;;;9.63;;
57281;SDS011;43129;52.628;10.098;2023-05-10T07:46:56;14.80;;;9.95;;
57281;SDS011;43129;52.628;10.098;2023-05-10T07:49:24;12.95;;;9.60;;
57281;SDS011;43129;52.628;10.098;2023-05-10T07:51:56;15.23;;;11.35;;
57281;SDS011;43129;52.628;10.098;2023-05-10T07:54:22;18.23;;;11.27;;
57281;SDS011;43129;52.628;10.098;2023-05-10T07:56:52;12.57;;;10.15;;
57281;SDS011;43129;52.628;10.098;2023-05-10T07:59:23;12.43;;;10.70;;
57281;SDS011;43129;52.628;10.098;2023-05-10T08:01:51;13.82;;;11.15;;
57281;SDS011;43129;52.628;10.098;2023-05-10T08:04:16;14.20;;;10.80;;
57281;SDS011;43129;52.628;10.098;2023-05-10T08:06:42;13.00;;;11.32;;
57281;SDS011;43129;52.628;10.098;2023-05-10T08:09:10;18.50;;;12.48;;
57281;SDS011;43129;52.628;10.098;2023-05-10T08:11:35;14.05;;;11.32;;
57281;SDS011;43129;52.628;10.098;2023-05-10T08:14:01;13.15;;;10.27;;
57281;SDS011;43129;52.628;10.098;2023-05-10T08:16:29;14.05;;;11.63;;
57281;SDS011;43129;52.628;10.098;2023-05-10T08:18:57;17.92;;;12.48;;
57281;SDS011;43129;52.628;10.098;2023-05-10T08:21:23;16.85;;;13.02;;
57281;SDS011;43129;52.628;10.098;2023-05-10T08:23:49;18.58;;;12.88;;
57281;SDS011;43129;52.628;10.098;2023-05-10T08:26:14;16.70;;;12.43;;
57281;SDS011;43129;52.628;10.098;2023-05-10T08:28:40;15.55;;;12.43;;
57281;SDS011;43129;52.628;10.098;2023-05-10T08:31:05;15.25;;;11.68;;
57281;SDS011;43129;52.628;10.098;2023-05-10T08:33:33;19.77;;;14.70;;
57281;SDS011;43129;52.628;10.098;2023-05-10T08:36:01;19.85;;;13.85;;
57281;SDS011;43129;52.628;10.098;2023-05-10T08:38:29;20.73;;;16.08;;
57281;SDS011;43129;52.628;10.098;2023-05-10T08:40:55;19.88;;;15.35;;
57281;SDS011;43129;52.628;10.098;2023-05-10T08:43:27;16.90;;;14.25;;
57281;SDS011;43129;52.628;10.098;2023-05-10T08:45:56;20.13;;;15.00;;
57281;SDS011;43129;52.628;10.098;2023-05-10T08:48:24;21.30;;;15.68;;
57281;SDS011;43129;52.628;10.098;2023-05-10T08:50:53;19.20;;;13.98;;
57281;SDS011;43129;52.628;10.098;2023-05-10T08:53:25;54.95;;;36.15;;
57281;SDS011;43129;52.628;10.098;2023-05-10T08:55:56;19.60;;;14.50;;
57281;SDS011;43129;52.628;10.098;2023-05-10T08:58:22;22.05;;;16.45;;
57281;SDS011;43129;52.628;10.098;2023-05-10T09:00:50;21.23;;;15.80;;
57281;SDS011;43129;52.628;10.098;2023-05-10T09:03:16;27.00;;;18.13;;
57281;SDS011;43129;52.628;10.098;2023-05-10T09:05:44;19.42;;;14.60;;
57281;SDS011;43129;52.628;10.098;2023-05-10T09:08:13;18.60;;;15.30;;
57281;SDS011;43129;52.628;10.098;2023-05-10T09:10:41;21.88;;;16.50;;
57281;SDS011;43129;52.628;10.098;2023-05-10T09:13:12;17.80;;;14.20;;
57281;SDS011;43129;52.628;10.098;2023-05-10T09:15:42;20.17;;;14.25;;
57281;SDS011;43129;52.628;10.098;2023-05-10T09:18:15;17.47;;;13.27;;
57281;SDS011;43129;52.628;10.098;2023-05-10T09:20:41;21.80;;;14.73;;
57281;SDS011;43129;52.628;10.098;2023-05-10T09:23:07;16.25;;;13.68;;
57281;SDS011;43129;52.628;10.098;2023-05-10T09:25:36;19.75;;;13.88;;
57281;SDS011;43129;52.628;10.098;2023-05-10T09:28:08;17.02;;;12.27;;
57281;SDS011;43129;52.628;10.098;2023-05-10T09:30:34;13.35;;;10.60;;
57281;SDS011;43129;52.628;10.098;2023-05-10T09:33:03;13.80;;;9.85;;
57281;SDS011;43129;52.628;10.098;2023-05-10T09:35:31;15.63;;;10.40;;
57281;SDS011;43129;52.628;10.098;2023-05-10T09:37:59;8.65;;;7.65;;
57281;SDS011;43129;52.628;10.098;2023-05-10T09:40:29;10.90;;;7.90;;
57281;SDS011;43129;52.628;10.098;2023-05-10T09:42:59;9.48;;;7.70;;
57281;SDS011;43129;52.628;10.098;2023-05-10T09:45:29;8.32;;;6.75;;
57281;SDS011;43129;52.628;10.098;2023-05-10T09:48:01;7.45;;;6.60;;
57281;SDS011;43129;52.628;10.098;2023-05-10T09:50:28;9.10;;;6.57;;
57281;SDS011;43129;52.628;10.098;2023-05-10T09:53:00;10.40;;;7.80;;
57281;SDS011;43129;52.628;10.098;2023-05-10T09:58:06;7.57;;;6.78;;
57281;SDS011;43129;52.628;10.098;2023-05-10T10:00:39;8.38;;;6.93;;
57281;SDS011;43129;52.628;10.098;2023-05-10T10:03:15;10.10;;;8.00;;
57281;SDS011;43129;52.628;10.098;2023-05-10T10:05:42;16.77;;;9.80;;
57281;SDS011;43129;52.628;10.098;2023-05-10T10:08:09;7.22;;;6.53;;
57281;SDS011;43129;52.628;10.098;2023-05-10T10:10:35;7.13;;;6.43;;
57281;SDS011;43129;52.628;10.098;2023-05-10T10:13:01;6.78;;;5.55;;
57281;SDS011;43129;52.628;10.098;2023-05-10T10:15:30;7.25;;;6.55;;
57281;SDS011;43129;52.628;10.098;2023-05-10T10:17:56;6.10;;;5.50;;
57281;SDS011;43129;52.628;10.098;2023-05-10T10:20:31;6.32;;;5.72;;
57281;SDS011;43129;52.628;10.098;2023-05-10T10:22:57;5.75;;;4.35;;
57281;SDS011;43129;52.628;10.098;2023-05-10T10:25:25;5.57;;;4.70;;
57281;SDS011;43129;52.628;10.098;2023-05-10T10:28:15;5.70;;;4.45;;
57281;SDS011;43129;52.628;10.098;2023-05-10T10:31:01;6.55;;;5.38;;
57281;SDS011;43129;52.628;10.098;2023-05-10T10:33:40;6.65;;;6.03;;
57281;SDS011;43129;52.628;10.098;2023-05-10T10:36:23;7.18;;;5.75;;
57281;SDS011;43129;52.628;10.098;2023-05-10T10:41:34;7.35;;;6.05;;
57281;SDS011;43129;52.628;10.098;2023-05-10T10:47:01;6.85;;;5.07;;
57281;SDS011;43129;52.628;10.098;2023-05-10T10:49:31;8.23;;;6.75;;
57281;SDS011;43129;52.628;10.098;2023-05-10T10:54:58;7.68;;;6.57;;
57281;SDS011;43129;52.628;10.098;2023-05-10T10:57:24;5.47;;;4.97;;
57281;SDS011;43129;52.628;10.098;2023-05-10T10:59:51;5.38;;;4.88;;
57281;SDS011;43129;52.628;10.098;2023-05-10T11:07:54;7.50;;;6.40;;
57281;SDS011;43129;52.628;10.098;2023-05-10T11:10:21;5.28;;;4.78;;
57281;SDS011;43129;52.628;10.098;2023-05-10T11:13:26;5.80;;;5.20;;
57281;SDS011;43129;52.628;10.098;2023-05-10T11:15:47;5.57;;;4.97;;
57281;SDS011;43129;52.628;10.098;2023-05-10T11:18:25;4.53;;;4.13;;
57281;SDS011;43129;52.628;10.098;2023-05-10T11:21:03;5.68;;;4.10;;
57281;SDS011;43129;52.628;10.098;2023-05-10T11:23:47;4.30;;;3.85;;
57281;SDS011;43129;52.628;10.098;2023-05-10T11:26:21;4.60;;;4.20;;
57281;SDS011;43129;52.628;10.098;2023-05-10T11:28:50;6.75;;;5.25;;
57281;SDS011;43129;52.628;10.098;2023-05-10T11:31:17;6.28;;;5.35;;
57281;SDS011;43129;52.628;10.098;2023-05-10T11:33:47;6.63;;;5.03;;
57281;SDS011;43129;52.628;10.098;2023-05-10T11:36:17;6.28;;;5.05;;
57281;SDS011;43129;52.628;10.098;2023-05-10T11:38:47;6.47;;;4.65;;
57281;SDS011;43129;52.628;10.098;2023-05-10T11:41:13;4.63;;;3.78;;
57281;SDS011;43129;52.628;10.098;2023-05-10T11:43:40;5.10;;;4.60;;
57281;SDS011;43129;52.628;10.098;2023-05-10T11:46:10;4.47;;;4.05;;
57281;SDS011;43129;52.628;10.098;2023-05-10T11:48:39;4.40;;;3.92;;
57281;SDS011;43129;52.628;10.098;2023-05-10T11:51:08;5.30;;;4.38;;
57281;SDS011;43129;52.628;10.098;2023-05-10T11:53:35;4.38;;;3.80;;
57281;SDS011;43129;52.628;10.098;2023-05-10T11:56:09;4.35;;;3.95;;
57281;SDS011;43129;52.628;10.098;2023-05-10T11:58:38;4.88;;;4.22;;
57281;SDS011;43129;52.628;10.098;2023-05-10T12:01:07;7.90;;;5.70;;
57281;SDS011;43129;52.628;10.098;2023-05-10T12:03:35;5.93;;;4.68;;
57281;SDS011;43129;52.628;10.098;2023-05-10T12:06:02;5.80;;;3.92;;
57281;SDS011;43129;52.628;10.098;2023-05-10T12:08:31;4.13;;;3.63;;
57281;SDS011;43129;52.628;10.098;2023-05-10T12:11:04;3.90;;;3.60;;
57281;SDS011;43129;52.628;10.098;2023-05-10T12:13:41;4.88;;;3.50;;
57281;SDS011;43129;52.628;10.098;2023-05-10T12:16:15;4.00;;;3.50;;
57281;SDS011;43129;52.628;10.098;2023-05-10T12:18:48;5.65;;;3.78;;
57281;SDS011;43129;52.628;10.098;2023-05-10T12:21:16;4.03;;;3.63;;
57281;SDS011;43129;52.628;10.098;2023-05-10T12:23:43;5.65;;;4.10;;
57281;SDS011;43129;52.628;10.098;2023-05-10T12:26:10;5.18;;;3.92;;
57281;SDS011;43129;52.628;10.098;2023-05-10T12:28:37;3.65;;;3.10;;
57281;SDS011;43129;52.628;10.098;2023-05-10T12:31:05;4.22;;;3.38;;
57281;SDS011;43129;52.628;10.098;2023-05-10T12:34:04;5.20;;;4.28;;
57281;SDS011;43129;52.628;10.098;2023-05-10T12:36:25;4.55;;;3.63;;
57281;SDS011;43129;52.628;10.098;2023-05-10T12:38:51;4.47;;;3.30;;
57281;SDS011;43129;52.628;10.098;2023-05-10T12:41:29;4.13;;;3.45;;
57281;SDS011;43129;52.628;10.098;2023-05-10T12:43:57;3.92;;;3.10;;
57281;SDS011;43129;52.628;10.098;2023-05-10T12:46:25;4.47;;;3.25;;
57281;SDS011;43129;52.628;10.098;2023-05-10T12:48:55;4.32;;;3.75;;
57281;SDS011;43129;52.628;10.098;2023-05-10T12:51:22;5.80;;;3.75;;
57281;SDS011;43129;52.628;10.098;2023-05-10T12:53:53;4.30;;;3.33;;
57281;SDS011;43129;52.628;10.098;2023-05-10T12:56:19;3.92;;;3.60;;
57281;SDS011;43129;52.628;10.098;2023-05-10T12:58:45;4.07;;;3.10;;
57281;SDS011;43129;52.628;10.098;2023-05-10T13:01:14;3.42;;;3.13;;
57281;SDS011;43129;52.628;10.098;2023-05-10T13:03:41;4.05;;;3.30;;
57281;SDS011;43129;52.628;10.098;2023-05-10T13:06:10;4.85;;;4.05;;
57281;SDS011;43129;52.628;10.098;2023-05-10T13:08:38;4.18;;;3.03;;
57281;SDS011;43129;52.628;10.098;2023-05-10T13:11:04;6.35;;;3.60;;
57281;SDS011;43129;52.628;10.098;2023-05-10T13:13:32;3.45;;;2.92;;
57281;SDS011;43129;52.628;10.098;2023-05-10T13:16:00;2.90;;;2.60;;
57281;SDS011;43129;52.628;10.098;2023-05-10T13:18:26;4.55;;;2.75;;
57281;SDS011;43129;52.628;10.098;2023-05-10T13:20:54;5.72;;;3.92;;
57281;SDS011;43129;52.628;10.098;2023-05-10T13:23:21;5.32;;;3.80;;
57281;SDS011;43129;52.628;10.098;2023-05-10T13:25:47;8.68;;;5.82;;
57281;SDS011;43129;52.628;10.098;2023-05-10T13:28:13;4.22;;;3.67;;
57281;SDS011;43129;52.628;10.098;2023-05-10T13:30:38;4.18;;;3.60;;
57281;SDS011;43129;52.628;10.098;2023-05-10T13:33:04;3.83;;;3.53;;
57281;SDS011;43129;52.628;10.098;2023-05-10T13:35:30;3.92;;;3.53;;
57281;SDS011;43129;52.628;10.098;2023-05-10T13:37:55;6.13;;;3.90;;
57281;SDS011;43129;52.628;10.098;2023-05-10T13:40:24;5.18;;;3.13;;
57281;SDS011;43129;52.628;10.098;2023-05-10T13:42:49;3.75;;;2.95;;
57281;SDS011;43129;52.628;10.098;2023-05-10T13:45:15;5.70;;;4.72;;
57281;SDS011;43129;52.628;10.098;2023-05-10T13:47:43;36.15;;;27.15;;
57281;SDS011;43129;52.628;10.098;2023-05-10T13:50:11;4.78;;;4.28;;
57281;SDS011;43129;52.628;10.098;2023-05-10T13:52:36;5.95;;;3.85;;
57281;SDS011;43129;52.628;10.098;2023-05-10T13:55:02;6.00;;;3.95;;
57281;SDS011;43129;52.628;10.098;2023-05-10T13:57:31;4.53;;;3.92;;
57281;SDS011;43129;52.628;10.098;2023-05-10T14:00:00;4.57;;;3.17;;
57281;SDS011;43129;52.628;10.098;2023-05-10T14:02:28;3.40;;;2.72;;
57281;SDS011;43129;52.628;10.098;2023-05-10T14:05:01;2.38;;;1.70;;
57281;SDS011;43129;52.628;10.098;2023-05-10T14:07:29;3.45;;;1.88;;
57281;SDS011;43129;52.628;10.098;2023-05-10T14:09:55;2.25;;;1.67;;
57281;SDS011;43129;52.628;10.098;2023-05-10T14:12:23;3.03;;;1.73;;
57281;SDS011;43129;52.628;10.098;2023-05-10T14:14:51;2.85;;;1.80;;
57281;SDS011;43129;52.628;10.098;2023-05-10T14:17:17;3.05;;;2.28;;
57281;SDS011;43129;52.628;10.098;2023-05-10T14:19:42;4.95;;;2.47;;
57281;SDS011;43129;52.628;10.098;2023-05-10T14:22:08;6.97;;;3.47;;
57281;SDS011;43129;52.628;10.098;2023-05-10T14:24:38;5.90;;;3.42;;
57281;SDS011;43129;52.628;10.098;2023-05-10T14:27:04;3.30;;;2.53;;
57281;SDS011;43129;52.628;10.098;2023-05-10T14:29:30;4.45;;;2.72;;
57281;SDS011;43129;52.628;10.098;2023-05-10T14:31:58;5.00;;;3.08;;
57281;SDS011;43129;52.628;10.098;2023-05-10T14:34:27;6.13;;;2.88;;
57281;SDS011;43129;52.628;10.098;2023-05-10T14:36:55;2.85;;;2.47;;
57281;SDS011;43129;52.628;10.098;2023-05-10T14:39:21;6.57;;;3.17;;
57281;SDS011;43129;52.628;10.098;2023-05-10T14:41:50;31.23;;;21.85;;
57281;SDS011;43129;52.628;10.098;2023-05-10T14:44:17;8.18;;;6.47;;
57281;SDS011;43129;52.628;10.098;2023-05-10T14:46:48;18.90;;;13.88;;
57281;SDS011;43129;52.628;10.098;2023-05-10T14:49:14;9.68;;;6.65;;
57281;SDS011;43129;52.628;10.098;2023-05-10T14:51:45;3.20;;;2.58;;
57281;SDS011;43129;52.628;10.098;2023-05-10T14:54:10;4.53;;;2.90;;
57281;SDS011;43129;52.628;10.098;2023-05-10T14:56:36;3.85;;;3.08;;
57281;SDS011;43129;52.628;10.098;2023-05-10T14:59:04;3.60;;;2.88;;
57281;SDS011;43129;52.628;10.098;2023-05-10T15:01:29;3.05;;;2.47;;
57281;SDS011;43129;52.628;10.098;2023-05-10T15:03:57;8.23;;;5.60;;
57281;SDS011;43129;52.628;10.098;2023-05-10T15:06:23;13.07;;;4.93;;
57281;SDS011;43129;52.628;10.098;2023-05-10T15:08:58;8.65;;;5.65;;
57281;SDS011;43129;52.628;10.098;2023-05-10T15:11:23;5.72;;;4.25;;
57281;SDS011;43129;52.628;10.098;2023-05-10T15:13:51;6.53;;;4.80;;
57281;SDS011;43129;52.628;10.098;2023-05-10T15:16:17;7.55;;;4.40;;
57281;SDS011;43129;52.628;10.098;2023-05-10T15:18:42;5.75;;;3.35;;
57281;SDS011;43129;52.628;10.098;2023-05-10T15:21:11;4.45;;;3.00;;
57281;SDS011;43129;52.628;10.098;2023-05-10T15:23:37;3.97;;;2.90;;
57281;SDS011;43129;52.628;10.098;2023-05-10T15:26:02;5.50;;;2.95;;